Main page
METAR-TAF:

METAR-TAF

Airports :

Jacksons International Airport

Port Moresby, Papua New Guinea

latitude: 09-26S, longitude: 147-13E, elevation: 38 m

Current weather observation

The report was made 31 minutes ago, at 05:00 UTC
Wind 15 kt from the South/Southeast
Temperature 32°C
Humidity 71%
Pressure 1006 hPa
Visibility 10 km or more
Few clouds at a height of 2500 ft
Scattered clouds at a height of 3500 ft
haze

METAR: AYPY 240500Z 15015KT 9999 HZ FEW025 SCT035 32/26 Q1006 RMK:DIST BUILD UPS FM NW TO E

Time: 15:31 (05:31 UTC)

Forecast

The report was made 7 hours and 24 minutes ago, at 22:07 UTC
Forecast valid from 24 at 00 UTC to 24 at 24 UTC
Wind 6 kt from the South/Southeast
Visibility 10 km or more
Scattered clouds at a height of 2000 ft
From 24 at 0600 UTC
Wind 10 kt from the South/Southeast
Visibility 10 km or more
Scattered clouds at a height of 1800 ft
Scattered clouds at a height of 3500 ft
light rain showers

TAF: AYPY 232207Z 2400/2424 16006KT 9999 SCT020 FM240600 16010KT 9999 -SHRA SCT018 SCT035

Weather observations and forecasts of more than 4000 airports (METAR and TAF reports).

The available stations are represented by yellow and red dots on the map.

Hover mouse over dot to see the name of the station.

Then click to see weather observations and forecasts.

To change the map : click on the green buttons with a black cross to zoom in, on the green button with a dash to zoom out, or on the green arrows for adjacent maps.


METAR-TAF: